Flensburg, Minnesota
Current Conditions -  °F | °C
As of 6:13 PM on Wednesday 28 Jan 2015 (Local Time) from KLXL Reporting Station
Haze Haze  
Wind Chill: 30°   Ceiling: 400
Heat Index: 30°   Visibility: 1.5mi
Dew Point: 28°   Wind: 0mph
Humidity: 93%   Direction: NA
Pressure: 29.83"   Gusts: NA
Location:  45.96°N, 94.54°W
Report Text: KLXL 290013Z AUTO 00000KT 1 1/2SM BR OVC004 M01/M02 A2983 RMK AO2
Loading
Personal Weather Stations






























Interactive Weather Map New forecast layout! Learn more

10-Day Weather Forecast

Advertisements
Track Severe Weather on mobile